createdAt,value
2022-11-07T00:00:07.730Z,70.00
2022-11-07T00:02:34.492Z,70.62
2022-11-07T00:05:01.997Z,70.86
2022-11-07T00:07:28.529Z,71.11
2022-11-07T00:09:54.977Z,71.19
2022-11-07T00:12:21.436Z,71.70
2022-11-07T00:14:48.481Z,71.21
2022-11-07T00:17:15.090Z,70.89
2022-11-07T00:19:41.885Z,70.90
2022-11-07T00:22:08.836Z,71.50
2022-11-07T00:24:35.319Z,69.89
2022-11-07T00:27:02.374Z,70.76
2022-11-07T00:29:28.984Z,71.35
2022-11-07T00:31:55.471Z,71.40
2022-11-07T00:34:22.254Z,71.80
2022-11-07T00:36:48.775Z,71.83
2022-11-07T00:39:15.373Z,71.25
2022-11-07T00:41:41.852Z,71.19
2022-11-07T00:44:08.313Z,71.67
2022-11-07T00:46:34.831Z,71.82
2022-11-07T00:49:01.310Z,71.89
2022-11-07T00:51:28.448Z,71.59
2022-11-07T00:53:55.402Z,72.26
2022-11-07T00:56:24.441Z,72.40
2022-11-07T00:58:55.509Z,72.52
2022-11-07T01:01:28.022Z,73.82
2022-11-07T01:03:54.978Z,73.29
2022-11-07T01:06:21.731Z,73.30
2022-11-07T01:08:48.204Z,72.53
2022-11-07T01:11:15.017Z,72.91
2022-11-07T01:13:41.852Z,73.33
2022-11-07T01:16:09.910Z,73.72
2022-11-07T01:18:36.379Z,73.07
2022-11-07T01:21:12.129Z,73.59
2022-11-07T01:23:41.673Z,73.69
2022-11-07T01:26:10.588Z,73.42
2022-11-07T01:28:37.078Z,73.75
2022-11-07T01:31:05.183Z,74.03
2022-11-07T01:33:31.989Z,74.34
2022-11-07T01:36:06.115Z,74.37
2022-11-07T01:38:33.431Z,74.83
2022-11-07T01:40:59.965Z,74.62
2022-11-07T01:44:00.046Z,74.63
2022-11-07T01:46:31.891Z,75.11
2022-11-07T01:49:04.550Z,75.21
2022-11-07T01:51:34.436Z,75.80
2022-11-07T01:54:01.406Z,76.38
2022-11-07T01:56:29.437Z,77.51
2022-11-07T01:58:56.435Z,78.03
2022-11-07T02:01:23.405Z,78.16
2022-11-07T02:03:50.266Z,77.63
2022-11-07T02:06:37.679Z,78.37
2022-11-07T02:09:04.665Z,78.73
2022-11-07T02:11:56.941Z,78.49
2022-11-07T02:14:23.411Z,79.40
2022-11-07T02:16:49.888Z,79.20
2022-11-07T02:19:37.276Z,79.78
2022-11-07T02:22:29.782Z,79.56
2022-11-07T02:24:59.359Z,79.57
2022-11-07T02:27:27.789Z,81.61
2022-11-07T02:30:24.606Z,81.63
2022-11-07T02:32:51.147Z,81.54
2022-11-07T02:35:43.339Z,82.08
2022-11-07T02:38:34.928Z,82.47
2022-11-07T02:41:12.123Z,82.81
2022-11-07T02:43:44.403Z,84.29
2022-11-07T02:46:11.982Z,82.43
2022-11-07T02:48:45.010Z,82.43
2022-11-07T02:51:11.474Z,83.12
2022-11-07T02:53:38.317Z,82.27
2022-11-07T02:56:05.192Z,81.52
2022-11-07T02:58:31.695Z,81.12
2022-11-07T03:00:58.748Z,80.76
2022-11-07T03:03:25.198Z,80.70
2022-11-07T03:05:55.022Z,80.14
2022-11-07T03:08:21.507Z,80.26
2022-11-07T03:10:47.942Z,79.78
2022-11-07T03:13:14.677Z,78.90
2022-11-07T03:15:41.325Z,78.63
2022-11-07T03:18:07.926Z,78.75
2022-11-07T03:20:34.743Z,78.40
2022-11-07T03:23:01.274Z,78.18
2022-11-07T03:25:27.770Z,79.99
2022-11-07T03:27:54.247Z,79.68
2022-11-07T03:30:20.724Z,79.88
2022-11-07T03:32:47.175Z,79.85
2022-11-07T03:35:13.834Z,80.59
2022-11-07T03:37:40.833Z,81.01
2022-11-07T03:40:07.870Z,80.57
2022-11-07T03:42:40.816Z,80.74
2022-11-07T03:45:08.309Z,80.94
2022-11-07T03:47:36.145Z,81.81
2022-11-07T03:50:03.007Z,81.09
2022-11-07T03:52:29.568Z,81.12
2022-11-07T03:54:56.089Z,81.68
2022-11-07T03:57:22.861Z,81.80
2022-11-07T03:59:49.479Z,82.15
2022-11-07T04:02:16.384Z,81.29
2022-11-07T04:04:42.906Z,80.99
2022-11-07T04:07:09.364Z,80.07
2022-11-07T04:09:35.837Z,80.63
2022-11-07T04:12:02.483Z,79.55
2022-11-07T04:14:49.031Z,79.74
2022-11-07T04:17:15.507Z,79.55
2022-11-07T04:19:42.001Z,78.59
2022-11-07T04:22:08.947Z,78.49
2022-11-07T04:24:35.550Z,77.73
2022-11-07T04:27:02.044Z,76.84
2022-11-07T04:29:28.518Z,77.07
2022-11-07T04:31:54.987Z,77.95
2022-11-07T04:34:21.454Z,77.05
2022-11-07T04:36:47.982Z,76.39
2022-11-07T04:39:14.675Z,78.15
2022-11-07T04:41:41.154Z,77.47
2022-11-07T04:44:07.827Z,77.56
2022-11-07T04:46:34.287Z,76.80
2022-11-07T04:49:00.727Z,76.77
2022-11-07T04:51:27.329Z,76.97
2022-11-07T04:53:53.840Z,76.75
2022-11-07T04:56:20.325Z,76.26
2022-11-07T04:58:46.829Z,75.58
2022-11-07T05:01:13.302Z,75.60
2022-11-07T05:03:42.016Z,75.57
2022-11-07T05:06:11.522Z,75.07
2022-11-07T05:08:37.979Z,74.89
2022-11-07T05:11:04.809Z,74.97
2022-11-07T05:13:31.262Z,75.35
2022-11-07T05:15:57.763Z,74.87
2022-11-07T05:18:24.469Z,75.60
2022-11-07T05:20:51.067Z,76.78
2022-11-07T05:23:18.113Z,77.12
2022-11-07T05:25:50.265Z,76.52
2022-11-07T05:28:31.218Z,77.33
2022-11-07T05:31:02.382Z,77.06
2022-11-07T05:33:29.366Z,77.20
2022-11-07T05:35:56.082Z,76.91
2022-11-07T05:38:22.979Z,76.32
2022-11-07T05:40:49.513Z,76.17
2022-11-07T05:43:16.392Z,76.51
2022-11-07T05:45:43.344Z,77.30
2022-11-07T05:48:11.910Z,77.85
2022-11-07T05:50:39.325Z,77.73
2022-11-07T05:53:06.293Z,78.18
2022-11-07T05:55:32.897Z,77.40
2022-11-07T05:58:05.705Z,77.63
2022-11-07T06:00:33.433Z,77.75
2022-11-07T06:02:59.977Z,78.13
2022-11-07T06:05:27.109Z,78.13
2022-11-07T06:07:53.622Z,77.37
2022-11-07T06:10:20.393Z,78.33
2022-11-07T06:12:47.005Z,78.87
2022-11-07T06:15:13.780Z,79.17
2022-11-07T06:17:40.256Z,78.97
2022-11-07T06:20:07.246Z,79.05
2022-11-07T06:22:34.022Z,79.02
2022-11-07T06:25:00.544Z,79.97
2022-11-07T06:27:26.980Z,79.70
2022-11-07T06:29:53.433Z,80.44
2022-11-07T06:32:20.328Z,80.43
2022-11-07T06:34:47.714Z,80.15
2022-11-07T06:37:14.546Z,81.58
2022-11-07T06:39:41.069Z,81.79
2022-11-07T06:42:07.517Z,81.16
2022-11-07T06:44:33.969Z,81.21
2022-11-07T06:47:00.449Z,80.47
2022-11-07T06:49:26.947Z,80.23
2022-11-07T06:51:53.452Z,79.98
2022-11-07T06:54:19.870Z,80.90
2022-11-07T06:56:46.515Z,80.11
2022-11-07T06:59:13.064Z,80.36
2022-11-07T07:01:39.641Z,79.34
2022-11-07T07:04:06.227Z,79.54
2022-11-07T07:06:32.805Z,78.05
2022-11-07T07:08:59.288Z,79.44
2022-11-07T07:11:25.828Z,78.90
2022-11-07T07:13:52.273Z,79.55
2022-11-07T07:16:21.762Z,79.08
2022-11-07T07:18:49.599Z,79.05
2022-11-07T07:21:16.140Z,79.21
2022-11-07T07:23:42.923Z,78.74
2022-11-07T07:26:13.088Z,78.36
2022-11-07T07:28:39.796Z,78.45
2022-11-07T07:31:10.845Z,78.38
2022-11-07T07:33:37.657Z,78.53
2022-11-07T07:36:04.591Z,78.81
2022-11-07T07:38:31.261Z,78.21
2022-11-07T07:40:58.378Z,77.84
2022-11-07T07:43:25.036Z,78.03
2022-11-07T07:45:57.841Z,77.61
2022-11-07T07:48:24.529Z,77.15
2022-11-07T07:50:51.380Z,77.42
2022-11-07T07:53:18.528Z,77.44
2022-11-07T07:55:45.214Z,76.81
2022-11-07T07:58:12.289Z,77.28
2022-11-07T08:00:39.231Z,77.01
2022-11-07T08:03:08.703Z,76.30
2022-11-07T08:05:35.751Z,75.88
2022-11-07T08:08:02.362Z,75.94
2022-11-07T08:10:41.996Z,76.46
2022-11-07T08:13:12.075Z,75.86
2022-11-07T08:15:38.552Z,75.72
2022-11-07T08:18:05.146Z,76.45
2022-11-07T08:20:31.829Z,76.24
2022-11-07T08:23:09.833Z,75.75
2022-11-07T08:25:39.335Z,75.97
2022-11-07T08:28:06.000Z,75.12
2022-11-07T08:30:32.689Z,74.84
2022-11-07T08:33:02.796Z,74.17
2022-11-07T08:35:32.442Z,73.48
2022-11-07T08:37:59.229Z,73.10
2022-11-07T08:40:26.585Z,72.96
2022-11-07T08:42:53.097Z,72.67
2022-11-07T08:45:19.602Z,72.18
2022-11-07T08:47:50.264Z,71.70
2022-11-07T08:50:16.767Z,72.41
2022-11-07T08:52:43.267Z,73.15
2022-11-07T08:55:10.237Z,72.21
2022-11-07T08:57:36.656Z,71.76
2022-11-07T09:00:04.197Z,71.72
2022-11-07T09:05:17.212Z,71.41
2022-11-07T09:07:44.457Z,71.33
2022-11-07T09:10:11.397Z,71.14
2022-11-07T09:12:48.393Z,70.50
2022-11-07T09:15:15.235Z,69.88
2022-11-07T09:17:41.752Z,69.57
2022-11-07T09:20:09.231Z,69.41
2022-11-07T09:22:36.355Z,67.62
2022-11-07T09:25:02.913Z,67.67
2022-11-07T09:27:29.373Z,67.67
2022-11-07T09:29:55.885Z,66.67
2022-11-07T09:32:43.424Z,66.28
2022-11-07T09:35:09.224Z,65.90
2022-11-07T09:37:41.436Z,65.21
2022-11-07T09:40:20.020Z,64.84
2022-11-07T09:42:53.849Z,64.52
2022-11-07T09:45:20.379Z,64.49
2022-11-07T09:47:56.539Z,63.90
2022-11-07T09:50:43.755Z,64.40
2022-11-07T09:53:20.779Z,63.24
2022-11-07T09:55:57.116Z,62.49
2022-11-07T09:58:29.773Z,62.10
2022-11-07T10:01:00.130Z,62.54
2022-11-07T10:03:27.458Z,61.74
2022-11-07T10:06:06.640Z,61.58
2022-11-07T10:12:12.457Z,59.44
2022-11-07T10:15:07.111Z,59.50
2022-11-07T10:17:56.166Z,59.14
2022-11-07T10:20:28.808Z,58.43
2022-11-07T10:23:19.671Z,58.50
2022-11-07T10:25:53.685Z,58.17
2022-11-07T10:28:21.935Z,58.34
2022-11-07T10:30:51.367Z,58.89
2022-11-07T10:33:21.466Z,58.60
2022-11-07T10:35:48.926Z,57.84
2022-11-07T10:38:29.912Z,58.54
2022-11-07T10:40:56.808Z,59.24
2022-11-07T10:43:34.342Z,58.48
2022-11-07T10:46:07.156Z,58.11
2022-11-07T10:48:33.646Z,58.62
2022-11-07T10:51:00.149Z,57.55
2022-11-07T10:53:26.648Z,59.15
2022-11-07T10:55:54.415Z,58.76
2022-11-07T10:58:28.874Z,59.39
2022-11-07T11:00:59.361Z,58.17
2022-11-07T11:03:43.332Z,56.61
2022-11-07T11:06:12.074Z,56.79
2022-11-07T11:08:39.239Z,55.67
2022-11-07T11:11:20.940Z,55.53
2022-11-07T11:13:48.533Z,54.86
2022-11-07T11:16:27.925Z,54.93
2022-11-07T11:18:57.477Z,54.93
2022-11-07T11:21:24.426Z,55.40
2022-11-07T11:23:52.301Z,54.91
2022-11-07T11:26:34.150Z,55.58
2022-11-07T11:29:07.447Z,54.92
2022-11-07T11:31:40.809Z,53.70
2022-11-07T11:34:17.516Z,54.56
2022-11-07T11:37:13.909Z,53.92
2022-11-07T11:39:57.949Z,53.49
2022-11-07T11:42:55.187Z,53.90
2022-11-07T11:45:51.026Z,54.05
2022-11-07T11:48:40.175Z,53.89
2022-11-07T11:51:19.694Z,53.94
2022-11-07T11:53:46.208Z,54.23
2022-11-07T11:56:39.344Z,54.98
2022-11-07T11:59:21.019Z,53.52
2022-11-07T12:02:05.695Z,52.97
2022-11-07T12:04:51.310Z,53.63
2022-11-07T12:07:48.449Z,53.43
2022-11-07T12:10:30.197Z,53.90
2022-11-07T12:13:09.365Z,53.37
2022-11-07T12:15:51.300Z,53.69
2022-11-07T12:18:19.727Z,53.15
2022-11-07T12:21:17.740Z,52.68
2022-11-07T12:23:51.203Z,53.45
2022-11-07T12:26:36.184Z,53.58
2022-11-07T12:29:29.134Z,53.18
2022-11-07T12:32:19.758Z,52.78
2022-11-07T12:34:52.424Z,52.78
2022-11-07T12:37:30.222Z,52.53
2022-11-07T12:40:17.270Z,52.29
2022-11-07T12:43:15.610Z,52.45
2022-11-07T12:45:48.875Z,52.48
2022-11-07T12:48:40.631Z,52.49
2022-11-07T12:51:35.104Z,51.50
2022-11-07T12:54:27.079Z,52.23
2022-11-07T12:56:54.402Z,52.04
2022-11-07T12:59:28.869Z,51.05
2022-11-07T13:02:16.685Z,50.82
2022-11-07T13:04:54.099Z,52.33
2022-11-07T13:07:28.688Z,52.93
2022-11-07T13:10:08.402Z,52.22
2022-11-07T13:12:40.013Z,52.96
2022-11-07T13:15:09.383Z,52.76
2022-11-07T13:17:44.486Z,53.77
2022-11-07T13:20:31.093Z,53.08
2022-11-07T13:23:00.129Z,52.24
2022-11-07T13:25:29.033Z,52.72
2022-11-07T13:27:55.451Z,52.06
2022-11-07T13:30:36.676Z,52.35
2022-11-07T13:33:03.951Z,51.74
2022-11-07T13:35:32.712Z,51.98
2022-11-07T13:38:09.857Z,51.12
2022-11-07T13:40:39.388Z,51.76
2022-11-07T13:43:15.671Z,50.43
2022-11-07T13:45:50.048Z,51.02
2022-11-07T13:48:24.241Z,50.96
2022-11-07T13:51:28.809Z,52.36
2022-11-07T13:54:01.306Z,52.14
2022-11-07T13:56:29.737Z,51.39
2022-11-07T13:58:56.527Z,52.48
2022-11-07T14:01:23.102Z,53.07
2022-11-07T14:03:49.660Z,51.68
2022-11-07T14:06:16.971Z,52.15
2022-11-07T14:08:47.642Z,51.18
2022-11-07T14:11:19.701Z,51.79
2022-11-07T14:13:48.224Z,49.46
2022-11-07T14:16:23.501Z,50.64
2022-11-07T14:18:57.148Z,52.75
2022-11-07T14:21:32.742Z,53.23
2022-11-07T14:23:59.841Z,52.83
2022-11-07T14:26:31.488Z,52.09
2022-11-07T14:28:58.837Z,52.32
2022-11-07T14:31:30.480Z,52.82
2022-11-07T14:34:16.941Z,54.07
2022-11-07T14:36:47.701Z,52.80
2022-11-07T14:39:15.897Z,50.35
2022-11-07T14:41:43.890Z,49.33
2022-11-07T14:44:15.993Z,49.55
2022-11-07T14:46:43.168Z,48.15
2022-11-07T14:49:18.734Z,45.81
2022-11-07T14:51:45.365Z,45.59
2022-11-07T14:54:16.662Z,45.37
2022-11-07T14:56:45.638Z,46.82
2022-11-07T14:59:14.716Z,48.32
2022-11-07T15:01:57.567Z,46.75
2022-11-07T15:04:35.601Z,49.23
2022-11-07T15:07:32.201Z,50.35
2022-11-07T15:10:11.232Z,51.47
2022-11-07T15:12:49.291Z,50.82
2022-11-07T15:15:24.317Z,47.66
2022-11-07T15:17:53.158Z,48.40
2022-11-07T15:20:21.765Z,47.88
2022-11-07T15:22:48.319Z,48.92
2022-11-07T15:25:34.807Z,49.03
2022-11-07T15:28:22.450Z,49.14
2022-11-07T15:30:51.586Z,50.27
2022-11-07T15:33:18.917Z,51.52
2022-11-07T15:35:47.425Z,52.21
2022-11-07T15:38:19.415Z,50.93
2022-11-07T15:40:46.593Z,52.30
2022-11-07T15:43:13.106Z,53.58
2022-11-07T15:45:40.447Z,53.28
2022-11-07T15:48:07.344Z,53.60
2022-11-07T15:50:34.323Z,54.02
2022-11-07T15:53:00.917Z,54.16
2022-11-07T15:55:28.495Z,55.23
2022-11-07T15:57:55.252Z,56.59
2022-11-07T16:00:28.441Z,57.54
2022-11-07T16:02:54.989Z,57.84
2022-11-07T16:05:21.954Z,57.47
2022-11-07T16:07:48.497Z,57.81
2022-11-07T16:10:23.197Z,57.71
2022-11-07T16:12:50.102Z,58.38
2022-11-07T16:15:18.267Z,59.03
2022-11-07T16:17:44.947Z,59.75
2022-11-07T16:20:15.713Z,58.92
2022-11-07T16:22:46.321Z,59.52
2022-11-07T16:25:22.486Z,59.38
2022-11-07T16:27:51.320Z,59.58
2022-11-07T16:30:18.669Z,59.23
2022-11-07T16:32:45.270Z,59.79
2022-11-07T16:35:11.783Z,60.16
2022-11-07T16:37:38.439Z,60.12
2022-11-07T16:40:07.041Z,61.33
2022-11-07T16:42:33.517Z,61.91
2022-11-07T16:45:00.009Z,61.57
2022-11-07T16:47:26.804Z,61.40
2022-11-07T16:49:56.062Z,62.83
2022-11-07T16:52:22.686Z,62.74
2022-11-07T16:54:52.235Z,62.30
2022-11-07T16:57:18.744Z,62.39
2022-11-07T16:59:46.588Z,62.61
2022-11-07T17:02:27.029Z,62.68
2022-11-07T17:04:54.307Z,61.79
2022-11-07T17:07:22.673Z,62.42
2022-11-07T17:09:49.435Z,62.90
2022-11-07T17:12:22.676Z,63.03
2022-11-07T17:14:49.627Z,63.06
2022-11-07T17:17:20.159Z,63.58
2022-11-07T17:19:47.164Z,63.04
2022-11-07T17:22:16.459Z,62.53
2022-11-07T17:24:43.593Z,63.66
2022-11-07T17:27:21.720Z,64.20
2022-11-07T17:29:48.590Z,64.35
2022-11-07T17:32:15.031Z,64.54
2022-11-07T17:34:41.755Z,65.59
2022-11-07T17:37:13.825Z,66.08
2022-11-07T17:39:40.679Z,66.26
2022-11-07T17:42:08.688Z,67.02
2022-11-07T17:44:38.527Z,67.39
2022-11-07T17:47:05.606Z,67.70
2022-11-07T17:49:32.199Z,68.39
2022-11-07T17:51:58.863Z,68.26
2022-11-07T17:54:29.315Z,68.47
2022-11-07T17:56:56.215Z,68.92
2022-11-07T17:59:23.092Z,68.47
2022-11-07T18:01:49.679Z,69.04
2022-11-07T18:04:16.316Z,69.13
2022-11-07T18:06:43.055Z,69.27
2022-11-07T18:09:14.100Z,70.32
2022-11-07T18:11:40.639Z,69.38
2022-11-07T18:14:07.102Z,68.50
2022-11-07T18:16:34.924Z,69.15
2022-11-07T18:19:02.057Z,69.70
2022-11-07T18:21:33.354Z,69.68
2022-11-07T18:24:00.622Z,69.28
2022-11-07T18:26:29.523Z,69.34
2022-11-07T18:29:03.973Z,69.62
2022-11-07T18:31:33.444Z,70.05
2022-11-07T18:34:01.224Z,70.58
2022-11-07T18:36:28.201Z,70.86
2022-11-07T18:38:54.993Z,71.11
2022-11-07T18:41:23.093Z,71.48
2022-11-07T18:43:49.758Z,71.81
2022-11-07T18:46:19.640Z,71.20
2022-11-07T18:48:46.463Z,71.29
2022-11-07T18:51:16.845Z,70.83
2022-11-07T18:53:43.487Z,71.16
2022-11-07T18:56:11.942Z,70.85
2022-11-07T18:58:39.293Z,70.27
2022-11-07T19:01:08.038Z,70.64
2022-11-07T19:03:35.598Z,71.07
2022-11-07T19:06:10.355Z,70.99
2022-11-07T19:08:38.949Z,70.76
2022-11-07T19:11:08.591Z,70.81
2022-11-07T19:13:40.729Z,70.36
2022-11-07T19:16:09.452Z,70.54
2022-11-07T19:18:36.098Z,70.13
2022-11-07T19:21:03.124Z,69.94
2022-11-07T19:23:30.407Z,70.28
2022-11-07T19:25:57.074Z,69.55
2022-11-07T19:28:23.574Z,68.74
2022-11-07T19:30:50.327Z,68.07
2022-11-07T19:33:17.105Z,68.83
2022-11-07T19:35:47.016Z,68.88
2022-11-07T19:38:14.619Z,68.66
2022-11-07T19:40:41.590Z,68.46
2022-11-07T19:43:08.141Z,68.41
2022-11-07T19:45:34.650Z,68.12
2022-11-07T19:48:01.140Z,67.91
2022-11-07T19:50:27.625Z,68.04
2022-11-07T19:52:54.103Z,67.69
2022-11-07T19:55:20.585Z,67.77
2022-11-07T19:57:49.547Z,68.18
2022-11-07T20:00:16.514Z,67.04
2022-11-07T20:02:46.514Z,67.61
2022-11-07T20:05:13.193Z,66.69
2022-11-07T20:07:39.733Z,67.38
2022-11-07T20:10:06.770Z,67.26
2022-11-07T20:12:33.542Z,67.63
2022-11-07T20:15:00.377Z,67.70
2022-11-07T20:17:26.878Z,68.03
2022-11-07T20:19:53.340Z,67.72
2022-11-07T20:22:19.855Z,67.82
2022-11-07T20:24:46.611Z,67.13
2022-11-07T20:27:13.083Z,66.82
2022-11-07T20:29:39.547Z,66.85
2022-11-07T20:32:06.044Z,66.73
2022-11-07T20:34:32.519Z,66.44
2022-11-07T20:36:59.262Z,66.17
2022-11-07T20:39:25.764Z,67.23
2022-11-07T20:41:52.353Z,67.03
2022-11-07T20:44:19.321Z,66.09
2022-11-07T20:46:46.370Z,65.81
2022-11-07T20:49:14.863Z,66.27
2022-11-07T20:51:41.756Z,66.17
2022-11-07T20:54:12.446Z,65.59
2022-11-07T20:56:38.900Z,65.74
2022-11-07T20:59:05.846Z,65.69
2022-11-07T21:01:33.021Z,65.19
2022-11-07T21:03:59.645Z,65.29
2022-11-07T21:06:26.291Z,65.81
2022-11-07T21:08:52.788Z,65.59
2022-11-07T21:11:19.558Z,65.62
2022-11-07T21:13:51.516Z,65.73
2022-11-07T21:16:21.368Z,67.08
2022-11-07T21:18:48.378Z,67.95
2022-11-07T21:21:20.216Z,68.82
2022-11-07T21:23:50.923Z,68.80
2022-11-07T21:26:20.409Z,67.91
2022-11-07T21:28:47.084Z,68.23
2022-11-07T21:31:19.815Z,68.33
2022-11-07T21:33:46.505Z,68.64
2022-11-07T21:36:15.798Z,68.55
2022-11-07T21:38:42.566Z,69.00
2022-11-07T21:41:12.003Z,69.72
2022-11-07T21:43:39.706Z,69.77
2022-11-07T21:46:33.073Z,69.51
2022-11-07T21:48:59.785Z,69.73
2022-11-07T21:51:29.201Z,69.66
2022-11-07T21:53:58.538Z,69.99
2022-11-07T21:56:27.549Z,70.18
2022-11-07T21:58:56.628Z,70.90
2022-11-07T22:01:24.261Z,71.42
2022-11-07T22:04:06.089Z,70.57
2022-11-07T22:06:36.290Z,70.58
2022-11-07T22:09:03.961Z,69.64
2022-11-07T22:11:30.482Z,69.39
2022-11-07T22:13:57.141Z,69.23
2022-11-07T22:16:23.654Z,68.93
2022-11-07T22:18:50.349Z,68.91
2022-11-07T22:21:20.186Z,69.23
2022-11-07T22:23:47.390Z,70.54
2022-11-07T22:26:17.093Z,70.40
2022-11-07T22:28:46.029Z,69.45
2022-11-07T22:31:15.694Z,70.45
2022-11-07T22:33:42.358Z,70.03
2022-11-07T22:36:10.314Z,69.63
2022-11-07T22:38:37.671Z,69.72
2022-11-07T22:41:14.014Z,69.94
2022-11-07T22:43:41.150Z,70.45
2022-11-07T22:46:12.432Z,70.30
2022-11-07T22:48:39.634Z,69.56
2022-11-07T22:51:18.326Z,69.47
2022-11-07T22:53:44.894Z,68.95
2022-11-07T22:56:14.420Z,68.91
2022-11-07T22:58:41.958Z,68.40
2022-11-07T23:01:18.415Z,69.46
2022-11-07T23:03:45.498Z,70.04
2022-11-07T23:06:15.008Z,70.49
2022-11-07T23:08:47.954Z,70.60
2022-11-07T23:14:07.671Z,70.67
2022-11-07T23:16:36.915Z,70.92
2022-11-07T23:19:06.502Z,71.38
2022-11-07T23:21:36.690Z,71.12
2022-11-07T23:24:04.008Z,70.70
2022-11-07T23:26:31.192Z,71.35
2022-11-07T23:28:57.743Z,69.95
2022-11-07T23:31:24.327Z,70.41
2022-11-07T23:33:51.065Z,70.27
2022-11-07T23:36:17.596Z,69.58
2022-11-07T23:38:44.244Z,69.13
2022-11-07T23:41:15.533Z,69.63
2022-11-07T23:43:42.965Z,69.56
2022-11-07T23:46:12.514Z,69.75
2022-11-07T23:48:38.993Z,70.05
2022-11-07T23:51:09.231Z,69.73
2022-11-07T23:53:38.606Z,69.79
2022-11-07T23:56:06.155Z,69.78
2022-11-07T23:58:32.703Z,69.30
